Time;durP1;ratioP1;P1;durP2;ratioP2;P2;SDS_P1;SDS_P2;PMS_P1;PMS_P2;Temp;Humidity;BMP_temperature;BMP_pressure;BME280_temperature;BME280_humidity;BME280_pressure;Samples;Min_cycle;Max_cycle;Signal;HPM_P1;HPM_P2
2021/05/23 00:02:16;;;;;;;22.10;14.68;;;;;;;8.85;100.00;100396.38;4945272;28;20121;-81
2021/05/23 00:04:42;;;;;;;24.88;16.13;;;;;;;8.91;100.00;100401.06;4990280;28;20430;-82
2021/05/23 00:07:09;;;;;;;26.63;14.63;;;;;;;8.85;100.00;100396.38;4976773;28;20043;-83
2021/05/23 00:09:35;;;;;;;25.17;14.45;;;;;;;8.84;100.00;100400.06;4973146;28;20125;-81
2021/05/23 00:12:01;;;;;;;24.75;16.02;;;;;;;8.86;100.00;100404.25;4991684;28;20049;-80
2021/05/23 00:14:26;;;;;;;25.13;16.42;;;;;;;8.89;100.00;100403.06;4992455;28;20034;-82
2021/05/23 00:16:52;;;;;;;26.23;15.75;;;;;;;8.84;100.00;100398.22;4989679;28;20053;-81
2021/05/23 00:19:17;;;;;;;24.52;16.35;;;;;;;8.89;100.00;100403.06;4974595;28;20069;-82
2021/05/23 00:21:43;;;;;;;25.50;16.63;;;;;;;8.89;100.00;100406.59;4991255;28;20257;-83
2021/05/23 00:24:09;;;;;;;24.65;14.82;;;;;;;8.86;100.00;100403.38;4972210;28;20030;-82
2021/05/23 00:26:36;;;;;;;28.75;17.80;;;;;;;8.88;100.00;100394.19;4972734;28;20065;-81
2021/05/23 00:29:03;;;;;;;27.58;16.95;;;;;;;8.90;100.00;100402.06;4987231;28;20038;-81
2021/05/23 00:31:29;;;;;;;23.75;15.57;;;;;;;8.83;100.00;100401.88;4972839;28;20400;-80
2021/05/23 00:33:54;;;;;;;27.33;17.00;;;;;;;8.86;100.00;100400.72;4989702;28;20081;-82
2021/05/23 00:36:19;;;;;;;24.98;16.42;;;;;;;8.81;100.00;100410.06;4971038;28;20125;-83
2021/05/23 00:38:45;;;;;;;25.73;15.93;;;;;;;8.80;100.00;100403.06;4954705;28;20049;-82
2021/05/23 00:41:13;;;;;;;30.05;17.60;;;;;;;8.85;100.00;100407.06;4973446;28;20061;-81
2021/05/23 00:43:39;;;;;;;24.77;15.98;;;;;;;8.84;100.00;100400.88;4978254;28;20049;-81
2021/05/23 00:46:04;;;;;;;27.63;17.60;;;;;;;8.88;100.00;100401.38;4956176;28;20093;-82
2021/05/23 00:48:30;;;;;;;26.25;15.68;;;;;;;8.84;100.00;100410.75;4956206;28;20068;-80
2021/05/23 00:50:56;;;;;;;29.55;15.18;;;;;;;8.81;100.00;100403.88;4958924;28;20062;-81
2021/05/23 00:53:22;;;;;;;29.90;15.23;;;;;;;8.78;100.00;100406.88;4970959;28;20045;-82
2021/05/23 00:55:47;;;;;;;27.48;16.80;;;;;;;8.83;100.00;100409.91;4992574;28;20130;-81
2021/05/23 00:58:13;;;;;;;26.73;15.32;;;;;;;8.86;100.00;100414.09;4975500;28;20407;-80
2021/05/23 01:00:42;;;;;;;28.73;16.27;;;;;;;8.83;100.00;100415.25;4976257;28;20045;-81
2021/05/23 01:03:30;;;;;;;29.50;17.98;;;;;;;8.89;100.00;100414.63;4975411;28;20479;-81
2021/05/23 01:05:58;;;;;;;25.27;15.57;;;;;;;8.82;100.00;100421.59;4973981;28;20387;-81
2021/05/23 01:08:25;;;;;;;21.63;14.20;;;;;;;8.80;100.00;100415.56;4994011;28;20137;-80
2021/05/23 01:10:52;;;;;;;25.60;15.70;;;;;;;8.82;100.00;100418.94;4975864;28;20097;-80
2021/05/23 01:13:37;;;;;;;28.85;14.35;;;;;;;8.80;100.00;100421.78;4994439;28;20042;-81
2021/05/23 01:16:15;;;;;;;28.88;16.33;;;;;;;8.82;100.00;100413.56;4989391;28;20116;-81
2021/05/23 01:18:53;;;;;;;27.90;16.50;;;;;;;8.84;100.00;100424.13;4961084;28;20368;-80
2021/05/23 01:21:21;;;;;;;25.02;15.90;;;;;;;8.84;100.00;100416.09;4992611;28;20035;-81
2021/05/23 01:23:53;;;;;;;26.75;17.23;;;;;;;8.89;100.00;100419.09;4975007;28;20116;-81
2021/05/23 01:26:19;;;;;;;27.67;16.75;;;;;;;8.84;100.00;100418.78;4973843;28;20041;-81
2021/05/23 01:28:53;;;;;;;31.70;17.30;;;;;;;8.82;100.00;100419.75;4977689;28;20046;-82
2021/05/23 01:31:20;;;;;;;33.08;19.17;;;;;;;8.87;100.00;100421.13;4988704;28;20038;-82
2021/05/23 01:33:53;;;;;;;28.92;16.85;;;;;;;8.85;100.00;100423.13;4991139;28;20104;-81
2021/05/23 01:36:23;;;;;;;31.48;18.63;;;;;;;8.85;100.00;100417.78;4988744;28;20048;-82
2021/05/23 01:38:50;;;;;;;30.15;18.48;;;;;;;8.84;100.00;100421.47;4991087;28;20053;-81
2021/05/23 01:41:15;;;;;;;33.33;20.38;;;;;;;8.85;100.00;100423.13;4993028;28;20057;-81
2021/05/23 01:43:41;;;;;;;29.00;18.63;;;;;;;8.86;100.00;100425.66;4957989;28;20038;-81
2021/05/23 01:46:08;;;;;;;38.97;21.88;;;;;;;8.88;100.00;100428.97;4965658;28;20045;-81
2021/05/23 01:48:36;;;;;;;34.38;20.55;;;;;;;8.89;100.00;100430.69;4978253;28;20046;-82
2021/05/23 01:51:01;;;;;;;36.28;21.63;;;;;;;8.88;100.00;100426.31;4974428;28;20034;-81
2021/05/23 01:53:27;;;;;;;41.00;24.27;;;;;;;8.91;100.00;100425.97;4992897;28;20506;-81
2021/05/23 01:55:52;;;;;;;36.65;23.33;;;;;;;8.93;100.00;100420.47;4992845;28;20509;-81
2021/05/23 01:58:18;;;;;;;35.78;22.60;;;;;;;8.90;100.00;100420.81;4973777;28;20058;-79
2021/05/23 02:00:50;;;;;;;41.35;24.58;;;;;;;8.92;100.00;100421.47;4991319;28;20038;-82
2021/05/23 02:03:18;;;;;;;45.13;25.58;;;;;;;8.96;100.00;100422.84;4974534;28;20038;-81
2021/05/23 02:05:49;;;;;;;43.28;24.02;;;;;;;8.91;100.00;100422.47;4993259;28;20427;-82
2021/05/23 02:08:17;;;;;;;39.03;24.75;;;;;;;8.87;100.00;100431.84;4967506;28;20049;-81
2021/05/23 02:10:43;;;;;;;47.10;25.45;;;;;;;8.93;100.00;100425.84;4992459;28;20046;-80
2021/05/23 02:13:09;;;;;;;42.28;25.33;;;;;;;8.92;100.00;100426.81;4991658;28;20423;-82
2021/05/23 02:15:39;;;;;;;39.58;23.92;;;;;;;8.88;100.00;100434.34;4990172;28;20081;-81
2021/05/23 02:18:05;;;;;;;43.08;23.65;;;;;;;8.85;100.00;100439.19;4991519;28;20030;-81
2021/05/23 02:20:33;;;;;;;39.97;21.13;;;;;;;8.85;100.00;100439.19;4992519;28;20043;-81
2021/05/23 02:23:02;;;;;;;39.70;21.63;;;;;;;8.84;100.00;100437.50;4991655;28;20030;-81
2021/05/23 02:25:29;;;;;;;40.10;21.80;;;;;;;8.82;100.00;100435.81;4974575;28;20066;-80
2021/05/23 02:27:58;;;;;;;39.63;22.35;;;;;;;8.84;100.00;100433.00;4992114;28;20093;-81
2021/05/23 02:30:27;;;;;;;38.75;22.95;;;;;;;8.84;100.00;100437.50;4992064;28;20487;-79
2021/05/23 02:32:53;;;;;;;45.13;23.75;;;;;;;8.87;100.00;100438.03;4982506;28;20436;-81
2021/05/23 02:35:22;;;;;;;44.28;24.58;;;;;;;8.89;100.00;100435.16;4974292;28;20042;-80
2021/05/23 02:37:52;;;;;;;39.97;22.80;;;;;;;8.86;100.00;100435.50;4989485;28;20038;-79
2021/05/23 02:40:21;;;;;;;47.38;23.35;;;;;;;8.84;100.00;100438.34;4973887;28;20055;-80
2021/05/23 02:42:48;;;;;;;41.63;23.25;;;;;;;8.82;100.00;100443.00;4972986;28;20041;-79
2021/05/23 02:45:23;;;;;;;42.78;24.05;;;;;;;8.84;100.00;100437.50;4952737;28;20467;-80
2021/05/23 02:47:49;;;;;;;43.30;24.35;;;;;;;8.83;100.00;100436.66;4985610;28;20049;-82
2021/05/23 02:50:24;;;;;;;51.10;28.73;;;;;;;8.82;100.00;100437.66;4991250;28;20038;-83
2021/05/23 02:52:50;;;;;;;43.08;23.40;;;;;;;8.80;100.00;100445.00;4992069;28;20113;-81
2021/05/23 02:55:22;;;;;;;42.50;23.70;;;;;;;8.80;100.00;100448.53;4987052;28;20126;-81
2021/05/23 02:57:48;;;;;;;46.08;25.58;;;;;;;8.79;100.00;100446.84;4985005;28;20034;-79
2021/05/23 03:00:18;;;;;;;48.72;27.45;;;;;;;8.83;100.00;100450.03;4989196;28;20046;-80
2021/05/23 03:02:51;;;;;;;47.67;25.20;;;;;;;8.78;100.00;100447.84;4986042;28;20030;-81
2021/05/23 03:05:18;;;;;;;46.33;25.73;;;;;;;8.76;100.00;100452.53;4987121;28;20088;-81
2021/05/23 03:07:47;;;;;;;51.33;24.70;;;;;;;8.74;100.00;100453.69;4962490;28;20448;-82
2021/05/23 03:10:18;;;;;;;52.17;27.42;;;;;;;8.79;100.00;100448.69;4993266;28;20046;-80
2021/05/23 03:12:46;;;;;;;46.45;27.05;;;;;;;8.79;100.00;100454.88;4972866;28;20035;-80
2021/05/23 03:15:15;;;;;;;47.53;26.10;;;;;;;8.78;100.00;100471.94;4985927;28;20026;-80
2021/05/23 03:17:41;;;;;;;46.53;23.92;;;;;;;8.75;100.00;100468.75;4982247;28;20096;-80
2021/05/23 03:20:09;;;;;;;49.50;25.52;;;;;;;8.72;100.00;100472.59;4989908;28;20042;-81
2021/05/23 03:22:36;;;;;;;48.30;27.08;;;;;;;8.73;100.00;100476.91;4974658;28;20043;-80
2021/05/23 03:25:07;;;;;;;48.03;26.63;;;;;;;8.72;100.00;100477.94;4986252;28;20041;-81
2021/05/23 03:27:33;;;;;;;51.55;28.20;;;;;;;8.77;100.00;100482.78;4985016;28;20046;-82
2021/05/23 03:29:59;;;;;;;51.00;29.85;;;;;;;8.77;100.00;100483.63;4971353;28;20042;-79
2021/05/23 03:32:26;;;;;;;50.55;27.58;;;;;;;8.79;100.00;100484.31;4984703;28;20045;-80
2021/05/23 03:34:52;;;;;;;52.90;29.13;;;;;;;8.82;100.00;100489.34;4988145;28;20114;-80
2021/05/23 03:37:18;;;;;;;48.97;27.60;;;;;;;8.75;100.00;100487.47;4985382;28;20136;-81
2021/05/23 03:39:51;;;;;;;48.50;26.10;;;;;;;8.74;100.00;100486.59;4985635;28;20042;-82
2021/05/23 03:42:16;;;;;;;47.35;25.65;;;;;;;8.71;100.00;100491.44;4969360;28;20058;-80
2021/05/23 03:44:44;;;;;;;55.83;26.27;;;;;;;8.70;100.00;100495.13;4987445;28;20092;-80
2021/05/23 03:47:10;;;;;;;48.47;26.52;;;;;;;8.70;100.00;100489.78;4971081;28;20045;-81
2021/05/23 03:49:41;;;;;;;44.25;24.67;;;;;;;8.61;100.00;100491.56;4982880;28;20129;-80
2021/05/23 03:52:09;;;;;;;47.88;27.25;;;;;;;8.66;100.00;100494.63;4987992;28;20487;-81
2021/05/23 03:54:35;;;;;;;45.67;23.95;;;;;;;8.64;100.00;100496.59;4988742;28;20042;-80
2021/05/23 03:57:04;;;;;;;43.83;23.85;;;;;;;8.62;100.00;100498.59;4985317;28;20046;-79
2021/05/23 03:59:30;;;;;;;49.47;27.23;;;;;;;8.65;100.00;100498.28;4974008;28;20057;-79
2021/05/23 04:01:57;;;;;;;46.22;25.23;;;;;;;8.64;100.00;100501.97;4989531;28;20386;-82
2021/05/23 04:04:23;;;;;;;41.70;23.65;;;;;;;8.62;100.00;100498.59;4994695;28;20042;-82
2021/05/23 04:06:49;;;;;;;43.50;24.27;;;;;;;8.61;100.00;100507.63;4987138;28;20043;-80
2021/05/23 04:09:18;;;;;;;45.58;24.67;;;;;;;8.63;100.00;100505.66;4994740;28;20050;-82
2021/05/23 04:11:50;;;;;;;44.37;25.43;;;;;;;8.68;100.00;100507.81;4984380;28;20046;-81
2021/05/23 04:14:16;;;;;;;40.13;23.65;;;;;;;8.65;100.00;100514.31;4952268;28;20085;-82
2021/05/23 04:16:42;;;;;;;42.75;25.10;;;;;;;8.67;100.00;100511.50;4972975;28;20473;-79
2021/05/23 04:19:10;;;;;;;40.00;23.90;;;;;;;8.63;100.00;100510.13;4954006;28;20452;-79
2021/05/23 04:21:36;;;;;;;45.20;25.88;;;;;;;8.63;100.00;100518.16;4986678;28;20125;-80
2021/05/23 04:24:02;;;;;;;44.58;25.90;;;;;;;8.70;100.00;100520.03;4988835;28;20125;-80
2021/05/23 04:26:28;;;;;;;43.03;24.50;;;;;;;8.66;100.00;100526.72;4997748;28;20041;-82
2021/05/23 04:28:53;;;;;;;40.53;22.65;;;;;;;8.66;100.00;100526.72;4974152;28;20387;-82
2021/05/23 04:31:18;;;;;;;39.95;22.88;;;;;;;8.61;100.00;100531.69;4969308;28;20038;-82
2021/05/23 04:33:44;;;;;;;42.63;23.30;;;;;;;8.64;100.00;100534.06;4975015;28;20372;-79
2021/05/23 04:36:09;;;;;;;44.03;24.95;;;;;;;8.69;100.00;100539.78;4990384;28;20085;-81
2021/05/23 04:38:35;;;;;;;42.90;23.05;;;;;;;8.72;100.00;100541.31;4983638;28;20495;-80
2021/05/23 04:41:00;;;;;;;43.78;24.55;;;;;;;8.70;100.00;100549.47;4970454;28;20038;-80
2021/05/23 04:43:26;;;;;;;45.92;27.08;;;;;;;8.74;100.00;100550.81;4975694;28;20034;-81
2021/05/23 04:45:52;;;;;;;40.67;24.33;;;;;;;8.73;100.00;100553.66;4959780;28;20054;-79
2021/05/23 04:48:17;;;;;;;45.17;24.67;;;;;;;8.71;100.00;100552.97;4992760;28;20105;-82
2021/05/23 04:50:42;;;;;;;43.88;25.15;;;;;;;8.72;100.00;100558.19;4974850;28;20047;-80
2021/05/23 04:53:08;;;;;;;44.03;25.60;;;;;;;8.74;100.00;100560.69;4989225;28;20034;-80
2021/05/23 04:55:35;;;;;;;45.05;25.10;;;;;;;8.77;100.00;100560.38;4960194;28;20050;-78
2021/05/23 04:58:01;;;;;;;43.38;23.45;;;;;;;8.77;100.00;100563.03;4972862;28;20076;-80
2021/05/23 05:00:28;;;;;;;46.35;26.80;;;;;;;8.81;100.00;100565.25;4976112;28;20073;-80
2021/05/23 05:02:54;;;;;;;43.53;25.52;;;;;;;8.81;100.00;100569.78;4975678;28;20491;-80
2021/05/23 05:05:20;;;;;;;49.65;24.23;;;;;;;8.80;100.00;100571.63;4977660;28;20042;-82
2021/05/23 05:07:45;;;;;;;43.08;26.17;;;;;;;8.82;100.00;100566.94;4978524;28;20046;-80
2021/05/23 05:10:11;;;;;;;51.75;27.38;;;;;;;8.83;100.00;100573.13;4975318;28;20042;-79
2021/05/23 05:12:38;;;;;;;56.15;27.70;;;;;;;8.85;100.00;100576.47;4992295;28;20390;-80
2021/05/23 05:15:06;;;;;;;55.65;27.10;;;;;;;8.84;100.00;100566.78;4978799;28;20035;-80
2021/05/23 05:17:32;;;;;;;65.22;33.40;;;;;;;8.87;100.00;100570.97;4974825;28;20399;-82
2021/05/23 05:20:05;;;;;;;63.42;35.03;;;;;;;8.87;100.00;100573.66;4957488;28;20038;-81
2021/05/23 05:22:31;;;;;;;62.78;34.95;;;;;;;8.89;100.00;100574.31;4975051;28;20057;-80
2021/05/23 05:24:57;;;;;;;70.70;36.92;;;;;;;8.90;100.00;100571.50;4973647;28;20068;-81
2021/05/23 05:27:25;;;;;;;72.55;38.25;;;;;;;8.92;100.00;100569.50;4991647;28;20058;-80
2021/05/23 05:29:52;;;;;;;65.18;33.78;;;;;;;8.91;100.00;100562.47;4991506;28;20125;-80
2021/05/23 05:32:19;;;;;;;70.00;36.00;;;;;;;8.92;100.00;100564.16;4955724;28;20034;-81
2021/05/23 05:34:46;;;;;;;63.60;30.52;;;;;;;8.89;100.00;100568.97;4988805;28;20108;-80
2021/05/23 05:37:12;;;;;;;61.13;33.53;;;;;;;8.93;100.00;100578.38;4973291;28;20038;-78
2021/05/23 05:39:37;;;;;;;52.90;32.08;;;;;;;8.96;100.00;100567.34;4985779;28;20049;-80
2021/05/23 05:42:03;;;;;;;56.15;29.75;;;;;;;8.98;100.00;100578.75;4985188;28;20189;-81
2021/05/23 05:44:28;;;;;;;49.40;28.10;;;;;;;8.96;100.00;100586.09;4985198;28;20045;-80
2021/05/23 05:46:54;;;;;;;51.90;27.55;;;;;;;8.98;100.00;100587.59;4990065;28;20038;-79
2021/05/23 05:49:20;;;;;;;51.10;29.42;;;;;;;9.04;100.00;100583.47;4973269;28;20034;-81
2021/05/23 05:51:46;;;;;;;52.85;29.33;;;;;;;9.08;100.00;100574.09;4989903;28;20043;-80
2021/05/23 05:54:12;;;;;;;49.55;29.08;;;;;;;9.18;100.00;100577.50;4954017;28;20069;-82
2021/05/23 05:56:38;;;;;;;52.17;30.65;;;;;;;9.27;100.00;100579.22;4961198;28;20068;-78
2021/05/23 05:59:05;;;;;;;46.80;27.48;;;;;;;9.26;100.00;100582.91;4983380;28;20097;-81
2021/05/23 06:01:31;;;;;;;46.03;27.40;;;;;;;9.30;100.00;100593.28;4972711;28;20042;-80
2021/05/23 06:03:57;;;;;;;49.25;28.10;;;;;;;9.32;100.00;100589.44;4986693;28;20054;-82
2021/05/23 06:06:24;;;;;;;46.47;28.70;;;;;;;9.47;100.00;100595.03;4986969;28;20059;-81
2021/05/23 06:08:49;;;;;;;51.30;29.08;;;;;;;9.53;100.00;100593.53;4992360;28;20050;-81
2021/05/23 06:11:15;;;;;;;47.63;29.50;;;;;;;9.52;100.00;100602.56;4974226;28;20474;-80
2021/05/23 06:13:40;;;;;;;43.53;25.25;;;;;;;9.58;100.00;100607.25;4972549;28;20128;-81
2021/05/23 06:16:07;;;;;;;44.95;27.17;;;;;;;9.61;100.00;100602.44;4973002;28;20066;-81
2021/05/23 06:18:32;;;;;;;47.25;27.88;;;;;;;9.61;100.00;100602.44;4981486;28;20050;-82
2021/05/23 06:20:58;;;;;;;53.30;30.70;;;;;;;9.67;100.00;100598.28;4989157;28;20030;-79
2021/05/23 06:23:23;;;;;;;52.33;31.08;;;;;;;9.70;100.00;100600.63;4988706;28;20058;-80
2021/05/23 06:25:50;;;;;;;55.70;31.70;;;;;;;9.70;100.00;100596.09;4983571;28;20042;-82
2021/05/23 06:28:15;;;;;;;57.70;35.00;;;;;;;9.81;100.00;100599.47;4985658;28;20046;-81
2021/05/23 06:30:41;;;;;;;51.47;29.92;;;;;;;9.84;100.00;100596.44;4992276;28;20038;-79
2021/05/23 06:33:06;;;;;;;54.38;30.63;;;;;;;9.83;100.00;100608.19;4990689;28;20398;-82
2021/05/23 06:35:33;;;;;;;51.63;32.30;;;;;;;9.84;100.00;100596.44;4969165;28;20058;-82
2021/05/23 06:37:59;;;;;;;51.25;31.02;;;;;;;9.86;100.00;100615.91;4973458;28;20043;-80
2021/05/23 06:40:24;;;;;;;43.45;27.33;;;;;;;9.81;100.00;100612.88;4990455;28;20042;-80
2021/05/23 06:42:49;;;;;;;48.22;26.83;;;;;;;9.81;100.00;100618.22;4973174;28;20100;-81
2021/05/23 06:45:15;;;;;;;46.95;27.92;;;;;;;9.79;100.00;100622.94;4990704;28;20039;-79
2021/05/23 06:47:40;;;;;;;36.78;23.60;;;;;;;9.76;100.00;100625.94;4991135;28;20049;-82
2021/05/23 06:50:07;;;;;;;32.13;22.63;;;;;;;9.71;100.00;100629.94;4998044;28;20042;-80
2021/05/23 06:52:32;;;;;;;30.58;20.63;;;;;;;9.70;100.00;100630.94;4993200;28;20112;-81
2021/05/23 06:54:58;;;;;;;30.83;19.35;;;;;;;9.71;100.00;100626.41;4990786;28;20495;-81
2021/05/23 06:57:23;;;;;;;31.98;20.95;;;;;;;9.71;100.00;100637.13;4974138;28;20046;-82
2021/05/23 06:59:48;;;;;;;27.55;19.38;;;;;;;9.70;100.00;100641.66;4958278;28;20046;-82
2021/05/23 07:02:14;;;;;;;31.02;21.88;;;;;;;9.78;100.00;100637.31;4957799;28;20042;-80
2021/05/23 07:04:39;;;;;;;33.67;22.48;;;;;;;9.76;100.00;100647.38;4997949;28;20096;-82
2021/05/23 07:07:05;;;;;;;30.85;19.92;;;;;;;9.80;100.00;100643.34;4972974;28;20088;-78
2021/05/23 07:09:30;;;;;;;29.48;18.30;;;;;;;9.79;100.00;100647.03;4973602;28;20125;-82
2021/05/23 07:11:56;;;;;;;28.75;20.88;;;;;;;9.81;100.00;100645.03;4958086;28;20506;-80
2021/05/23 07:14:21;;;;;;;28.50;18.23;;;;;;;9.82;100.00;100652.06;4975145;28;20046;-82
2021/05/23 07:16:46;;;;;;;30.08;19.42;;;;;;;9.87;100.00;100655.13;4958537;28;20049;-80
2021/05/23 07:19:12;;;;;;;27.67;20.05;;;;;;;9.95;100.00;100652.44;4957258;28;20510;-79
2021/05/23 07:21:37;;;;;;;25.83;17.48;;;;;;;9.96;100.00;100645.25;4998304;28;20451;-80
2021/05/23 07:24:03;;;;;;;19.90;12.68;;;;;;;10.01;100.00;100650.94;4971426;28;20038;-80
2021/05/23 07:26:29;;;;;;;18.60;14.45;;;;;;;10.00;100.00;100644.75;4973467;28;20042;-81
2021/05/23 07:28:54;;;;;;;23.05;15.68;;;;;;;10.05;100.00;100650.47;4973799;28;20057;-79
2021/05/23 07:31:20;;;;;;;21.42;14.35;;;;;;;10.11;100.00;100651.66;4998818;28;20034;-81
2021/05/23 07:33:45;;;;;;;19.02;14.85;;;;;;;10.13;100.00;100655.84;4990490;28;20507;-81
2021/05/23 07:36:12;;;;;;;19.60;14.82;;;;;;;10.26;100.00;100668.75;4993235;28;20046;-82
2021/05/23 07:38:38;;;;;;;23.50;15.77;;;;;;;10.28;100.00;100664.13;4991215;28;20042;-80
2021/05/23 07:41:04;;;;;;;25.73;17.10;;;;;;;10.38;100.00;100672.00;4996090;28;20046;-82
2021/05/23 07:43:29;;;;;;;25.70;16.45;;;;;;;10.39;100.00;100665.66;4990727;28;20046;-80
2021/05/23 07:45:55;;;;;;;27.13;17.98;;;;;;;10.33;100.00;100671.69;4957516;28;20049;-80
2021/05/23 07:48:20;;;;;;;32.03;20.92;;;;;;;10.44;100.00;100671.31;4969241;28;20114;-84
2021/05/23 07:50:47;;;;;;;32.88;21.90;;;;;;;10.43;100.00;100672.34;4981374;28;20043;-79
2021/05/23 07:53:13;;;;;;;28.95;20.20;;;;;;;10.46;100.00;100680.06;4974212;28;20039;-79
2021/05/23 07:55:38;;;;;;;29.23;20.20;;;;;;;10.43;100.00;100682.25;4984610;28;20096;-79
2021/05/23 07:58:04;;;;;;;28.38;20.23;;;;;;;10.44;100.00;100684.75;4961189;28;20051;-80
2021/05/23 08:00:29;;;;;;;28.25;18.05;;;;;;;10.38;100.00;100677.34;4943241;28;20038;-79
2021/05/23 08:02:55;;;;;;;30.33;19.13;;;;;;;10.38;100.00;100685.41;4983935;28;20130;-79
2021/05/23 08:05:20;;;;;;;25.30;16.83;;;;;;;10.44;100.00;100684.75;4965846;28;20046;-82
2021/05/23 08:07:46;;;;;;;24.67;16.52;;;;;;;10.46;100.00;100677.38;4972845;28;20078;-79
2021/05/23 08:10:12;;;;;;;24.75;17.20;;;;;;;10.43;100.00;100693.81;4989712;28;20074;-80
2021/05/23 08:12:38;;;;;;;26.38;14.95;;;;;;;10.41;100.00;100698.47;4983062;28;20030;-81
2021/05/23 08:15:05;;;;;;;20.35;13.80;;;;;;;10.44;100.00;100695.47;4977046;28;20042;-81
2021/05/23 08:17:30;;;;;;;19.85;13.32;;;;;;;10.46;100.00;100698.84;4980137;28;20060;-79
2021/05/23 08:19:55;;;;;;;18.90;12.65;;;;;;;10.55;100.00;100705.88;4995869;28;20663;-81
2021/05/23 08:22:21;;;;;;;18.70;11.32;;;;;;;10.47;100.00;100703.22;4987338;28;20042;-79
2021/05/23 08:24:47;;;;;;;18.38;9.77;;;;;;;10.49;100.00;100717.28;4966818;28;20052;-82
2021/05/23 08:27:12;;;;;;;19.20;9.80;;;;;;;10.50;100.00;100710.94;4970708;28;20035;-81
2021/05/23 08:29:38;;;;;;;19.15;11.27;;;;;;;10.50;100.00;100723.47;4961345;28;20042;-81
2021/05/23 08:32:04;;;;;;;15.27;8.93;;;;;;;10.55;99.93;100716.63;4982044;28;20069;-81
2021/05/23 08:34:29;;;;;;;15.38;9.55;;;;;;;10.63;98.13;100725.69;4971671;28;20081;-81
2021/05/23 08:36:55;;;;;;;14.63;9.65;;;;;;;10.71;96.72;100717.66;4953221;28;20047;-80
2021/05/23 08:39:20;;;;;;;13.95;9.18;;;;;;;10.82;97.15;100728.06;4980891;28;20400;-79
2021/05/23 08:41:47;;;;;;;15.32;7.90;;;;;;;10.77;95.75;100725.88;4972824;28;20116;-81
2021/05/23 08:44:20;;;;;;;16.05;8.45;;;;;;;10.63;96.95;100742.63;4971296;28;20117;-80
2021/05/23 08:46:51;;;;;;;14.63;8.80;;;;;;;10.53;97.70;100741.94;4990126;28;20105;-80
2021/05/23 08:49:19;;;;;;;13.45;7.55;;;;;;;10.48;98.41;100739.75;4990067;28;20057;-82
2021/05/23 08:51:45;;;;;;;13.70;8.45;;;;;;;10.40;99.96;100745.09;4992713;28;20042;-79
2021/05/23 08:54:12;;;;;;;13.85;7.90;;;;;;;10.29;99.12;100756.13;4989914;28;20129;-81
2021/05/23 08:56:38;;;;;;;15.00;8.93;;;;;;;10.18;99.52;100767.97;4975661;28;20488;-80
2021/05/23 08:59:03;;;;;;;12.88;8.25;;;;;;;10.13;100.00;100752.38;4957343;28;20046;-82
2021/05/23 09:01:29;;;;;;;15.80;8.63;;;;;;;10.08;99.83;100775.31;4981904;28;20097;-82
2021/05/23 09:03:56;;;;;;;13.85;7.95;;;;;;;10.10;99.68;100768.78;4972477;28;20053;-82
2021/05/23 09:06:29;;;;;;;12.48;8.02;;;;;;;10.08;98.73;100776.16;4987541;28;20482;-80
2021/05/23 09:08:59;;;;;;;11.52;7.63;;;;;;;10.15;99.42;100769.13;4980968;28;20133;-80
2021/05/23 09:11:25;;;;;;;11.27;7.53;;;;;;;10.22;98.92;100774.69;4992509;28;20049;-80
2021/05/23 09:13:55;;;;;;;14.05;7.88;;;;;;;10.35;99.34;100782.31;4965407;28;20061;-79
2021/05/23 09:16:21;;;;;;;12.98;8.00;;;;;;;10.49;98.42;100778.16;4992865;28;20426;-80
2021/05/23 09:18:55;;;;;;;15.40;8.27;;;;;;;10.60;98.62;100781.38;4993100;28;20042;-81
2021/05/23 09:21:27;;;;;;;14.23;7.93;;;;;;;10.70;97.30;100783.06;4979071;28;20682;-81
2021/05/23 09:24:06;;;;;;;13.40;7.68;;;;;;;10.75;96.44;100794.13;4955604;28;20043;-81
2021/05/23 09:26:53;;;;;;;11.38;7.30;;;;;;;10.75;95.37;100781.56;4955841;28;20050;-81
2021/05/23 09:29:22;;;;;;;15.68;7.63;;;;;;;10.80;96.03;100784.59;4989021;28;20169;-79
2021/05/23 09:32:02;;;;;;;13.20;7.53;;;;;;;10.92;96.30;100795.84;4967253;28;20125;-79
2021/05/23 09:34:29;;;;;;;12.98;6.65;;;;;;;10.98;94.91;100800.53;4946004;28;20050;-81
2021/05/23 09:36:55;;;;;;;10.48;6.47;;;;;;;11.11;92.45;100801.91;4959936;28;20046;-81
2021/05/23 09:39:20;;;;;;;13.05;6.90;;;;;;;11.34;91.03;100794.84;4988277;28;20619;-80
2021/05/23 09:41:47;;;;;;;11.48;5.78;;;;;;;11.42;88.75;100794.84;4974509;28;20462;-81
2021/05/23 09:44:17;;;;;;;10.00;5.88;;;;;;;11.46;89.79;100812.28;4974692;28;20069;-80
2021/05/23 09:47:04;;;;;;;12.98;5.85;;;;;;;11.40;88.56;100810.28;4975764;28;20593;-81
2021/05/23 09:49:32;;;;;;;9.10;5.68;;;;;;;11.37;87.65;100821.38;4972473;28;20049;-82
2021/05/23 09:52:03;;;;;;;10.40;5.32;;;;;;;11.49;89.25;100805.75;4985520;28;20113;-81
2021/05/23 09:54:52;;;;;;;13.15;5.13;;;;;;;11.67;85.84;100805.53;4999464;28;20491;-81
2021/05/23 09:57:20;;;;;;;11.38;4.50;;;;;;;11.86;85.53;100790.91;4986877;28;20046;-78
2021/05/23 09:59:57;;;;;;;8.95;5.15;;;;;;;11.83;83.58;100821.66;4970839;28;20039;-80
2021/05/23 10:02:22;;;;;;;12.50;5.00;;;;;;;11.82;85.33;100813.75;4996377;28;20506;-79
2021/05/23 10:04:48;;;;;;;8.45;4.65;;;;;;;11.98;84.56;100824.50;4954963;28;20072;-80
2021/05/23 10:07:13;;;;;;;8.30;3.78;;;;;;;12.02;83.65;100809.69;4985013;28;20065;-81
2021/05/23 10:09:40;;;;;;;10.55;4.03;;;;;;;12.15;83.25;100826.13;4989902;28;20475;-80
2021/05/23 10:12:09;;;;;;;12.65;4.68;;;;;;;12.23;79.84;100809.13;4971209;28;20043;-80
2021/05/23 10:14:35;;;;;;;11.23;4.55;;;;;;;12.23;81.40;100838.72;4965382;28;20046;-82
2021/05/23 10:17:03;;;;;;;9.93;4.80;;;;;;;12.22;80.25;100828.94;4959475;28;21392;-79
2021/05/23 10:19:34;;;;;;;11.35;5.05;;;;;;;12.45;79.95;100830.88;4970696;28;20045;-81
2021/05/23 10:22:05;;;;;;;7.85;4.72;;;;;;;12.58;80.02;100831.16;4978480;28;20050;-80
2021/05/23 10:24:36;;;;;;;8.18;4.78;;;;;;;12.67;76.09;100830.09;4974916;28;20048;-82
2021/05/23 10:27:05;;;;;;;8.95;4.75;;;;;;;12.61;75.70;100837.00;4966276;28;20045;-80
2021/05/23 10:29:33;;;;;;;8.18;4.43;;;;;;;12.54;75.53;100830.63;4981854;28;20046;-79
2021/05/23 10:32:08;;;;;;;6.60;4.10;;;;;;;12.44;74.87;100840.78;4993210;28;20065;-80
2021/05/23 10:34:42;;;;;;;8.45;3.75;;;;;;;12.37;73.64;100846.06;4973056;28;20038;-82
2021/05/23 10:37:10;;;;;;;8.30;4.22;;;;;;;12.38;75.79;100842.34;4994322;28;20530;-80
2021/05/23 10:39:54;;;;;;;7.28;4.05;;;;;;;12.34;74.84;100838.31;4974132;28;20182;-83
2021/05/23 10:42:23;;;;;;;7.15;3.33;;;;;;;12.20;73.24;100847.13;4975957;28;20046;-81
2021/05/23 10:44:51;;;;;;;5.85;3.53;;;;;;;12.27;76.06;100848.09;4980655;28;20049;-83
2021/05/23 10:47:34;;;;;;;7.07;3.47;;;;;;;12.16;74.21;100843.91;4979499;28;20394;-81
2021/05/23 10:50:05;;;;;;;12.32;4.18;;;;;;;12.12;75.38;100857.91;4974627;28;20082;-81
2021/05/23 10:52:33;;;;;;;6.95;3.60;;;;;;;12.18;74.92;100851.84;4967872;28;20149;-80
2021/05/23 10:55:10;;;;;;;9.27;3.72;;;;;;;12.35;75.21;100850.75;4969896;28;20038;-82
2021/05/23 10:57:47;;;;;;;4.95;3.10;;;;;;;12.49;73.00;100840.28;4979102;28;20046;-82
2021/05/23 11:00:19;;;;;;;5.28;2.25;;;;;;;12.61;68.10;100844.25;4971130;28;20051;-81
2021/05/23 11:02:46;;;;;;;5.90;2.17;;;;;;;12.51;68.56;100859.75;4965026;28;20065;-80
2021/05/23 11:05:16;;;;;;;5.90;2.30;;;;;;;12.50;67.48;100868.88;4971272;28;20487;-82
2021/05/23 11:07:54;;;;;;;4.85;2.45;;;;;;;12.47;68.09;100847.69;4973530;28;20042;-81
2021/05/23 11:10:22;;;;;;;8.98;2.97;;;;;;;12.61;67.64;100852.34;4972614;28;20506;-81
2021/05/23 11:12:57;;;;;;;5.43;2.40;;;;;;;12.78;68.67;100858.47;4973596;28;20487;-82
2021/05/23 11:15:24;;;;;;;9.10;2.85;;;;;;;12.88;70.60;100859.91;4973076;28;20042;-81